Time;durP1;ratioP1;P1;durP2;ratioP2;P2;SDS_P1;SDS_P2;PMS_P1;PMS_P2;Temp;Humidity;BMP_temperature;BMP_pressure;BME280_temperature;BME280_humidity;BME280_pressure;Samples;Min_cycle;Max_cycle;Signal;HPM_P1;HPM_P2
2023/12/06 00:01:11;;;;;;;125.20;57.50;;;;;;;-5.58;91.89;99906.85;133438;1302;23150;-85
2023/12/06 00:04:12;;;;;;;124.00;58.20;;;;;;;-5.57;91.88;99911.46;133623;1291;22403;-86
2023/12/06 00:07:12;;;;;;;119.90;55.50;;;;;;;-5.57;91.87;99910.45;133629;1303;22968;-85
2023/12/06 00:10:13;;;;;;;128.00;56.20;;;;;;;-5.58;91.93;99911.86;133446;1308;22412;-86
2023/12/06 00:13:13;;;;;;;121.20;57.70;;;;;;;-5.61;91.70;99909.23;133530;1308;22580;-86
2023/12/06 00:16:14;;;;;;;122.10;55.90;;;;;;;-5.68;91.60;99907.13;130697;1293;22556;-85
2023/12/06 00:19:15;;;;;;;114.30;54.70;;;;;;;-5.74;91.68;99903.80;132097;1303;22248;-86
2023/12/06 00:22:15;;;;;;;123.40;56.00;;;;;;;-5.81;91.65;99895.52;131273;1303;22603;-86
2023/12/06 00:25:16;;;;;;;120.00;56.00;;;;;;;-5.89;91.85;99896.17;130512;1298;22627;-85
2023/12/06 00:28:17;;;;;;;117.10;52.10;;;;;;;-5.93;91.94;99899.13;130789;1306;24220;-86
2023/12/06 00:31:17;;;;;;;120.50;56.30;;;;;;;-5.95;92.16;99899.73;130755;1303;22603;-88
2023/12/06 00:34:18;;;;;;;108.40;53.30;;;;;;;-5.96;92.16;99896.70;131757;1303;22415;-89
2023/12/06 00:37:18;;;;;;;120.40;54.70;;;;;;;-5.99;92.16;99895.10;131746;1303;25316;-87
2023/12/06 00:40:19;;;;;;;117.80;54.20;;;;;;;-6.00;92.36;99901.02;130791;1303;22874;-88
2023/12/06 00:43:19;;;;;;;122.60;54.50;;;;;;;-6.00;92.48;99898.94;131098;1303;22671;-87
2023/12/06 00:46:20;;;;;;;118.80;55.10;;;;;;;-6.01;92.36;99905.35;131071;1297;22684;-88
2023/12/06 00:49:20;;;;;;;119.10;55.40;;;;;;;-6.03;92.37;99909.41;133008;1303;22510;-88
2023/12/06 00:52:21;;;;;;;121.00;53.60;;;;;;;-6.04;92.48;99910.52;131802;1303;22684;-88
2023/12/06 00:55:21;;;;;;;127.50;56.80;;;;;;;-6.06;92.55;99908.48;130938;1290;24227;-87
2023/12/06 00:58:22;;;;;;;113.80;52.20;;;;;;;-6.06;92.79;99917.10;130922;1293;22581;-88
2023/12/06 01:01:22;;;;;;;122.80;57.80;;;;;;;-6.06;92.86;99910.41;131022;1294;24261;-88
2023/12/06 01:04:23;;;;;;;138.70;64.30;;;;;;;-6.08;93.04;99912.55;130746;1303;22593;-88
2023/12/06 01:07:23;;;;;;;150.20;64.60;;;;;;;-6.08;93.14;99919.44;131173;1297;24272;-87
2023/12/06 01:10:24;;;;;;;135.00;59.10;;;;;;;-6.08;93.10;99917.88;131071;1303;24810;-88
2023/12/06 01:13:24;;;;;;;144.10;63.90;;;;;;;-6.05;93.33;99918.98;130973;1300;23444;-88
2023/12/06 01:16:25;;;;;;;151.70;66.40;;;;;;;-6.01;93.60;99912.62;132571;1306;22468;-86
2023/12/06 01:19:25;;;;;;;139.20;60.30;;;;;;;-5.99;93.44;99919.39;133388;1303;22385;-87
2023/12/06 01:22:26;;;;;;;154.20;66.40;;;;;;;-5.97;93.56;99916.55;132989;1308;22557;-86
2023/12/06 01:25:26;;;;;;;143.50;64.80;;;;;;;-5.96;93.65;99914.45;133202;1308;22234;-86
2023/12/06 01:28:27;;;;;;;120.40;55.90;;;;;;;-5.93;93.49;99916.01;131877;1303;22684;-86
2023/12/06 01:31:27;;;;;;;142.70;65.60;;;;;;;-5.89;93.66;99918.77;130836;1306;22572;-86
2023/12/06 01:34:28;;;;;;;141.20;63.70;;;;;;;-5.85;93.72;99911.19;131010;1305;23548;-86
2023/12/06 01:37:28;;;;;;;147.30;65.50;;;;;;;-5.84;93.65;99904.94;130914;1297;22586;-86
2023/12/06 01:40:29;;;;;;;133.20;63.90;;;;;;;-5.81;93.80;99902.75;130959;1306;22575;-86
2023/12/06 01:43:29;;;;;;;138.10;65.40;;;;;;;-5.77;94.06;99900.16;130894;1296;23741;-86
2023/12/06 01:46:30;;;;;;;129.60;61.20;;;;;;;-5.73;94.35;99898.92;130898;1297;24329;-86
2023/12/06 01:49:31;;;;;;;122.20;56.20;;;;;;;-5.68;94.47;99901.80;131138;1303;25629;-86
2023/12/06 01:52:32;;;;;;;131.50;59.80;;;;;;;-5.65;94.44;99902.00;130995;1300;23980;-86
2023/12/06 01:55:33;;;;;;;134.90;60.70;;;;;;;-5.62;94.51;99903.77;130947;1306;28568;-86
2023/12/06 01:58:35;;;;;;;;;;;;;;;-5.59;94.54;99900.70;130848;1302;22664;-86
2023/12/06 02:01:36;;;;;;;127.10;57.50;;;;;;;-5.56;94.67;99897.98;130499;1301;22644;-87
2023/12/06 02:04:38;;;;;;;135.20;62.90;;;;;;;-5.55;94.63;99896.55;130994;1296;22580;-86
2023/12/06 02:07:39;;;;;;;134.50;58.70;;;;;;;-5.54;94.70;99896.16;130721;1293;22600;-86
2023/12/06 02:10:40;;;;;;;133.60;61.70;;;;;;;-5.50;95.14;99892.88;131070;1299;22567;-86
2023/12/06 02:13:41;;;;;;;139.00;61.40;;;;;;;-5.47;95.17;99886.52;130881;1300;22592;-87
2023/12/06 02:16:43;;;;;;;134.90;61.00;;;;;;;-5.45;95.23;99890.93;130567;1306;155290;-87
2023/12/06 02:19:43;;;;;;;130.80;60.40;;;;;;;-5.43;95.38;99889.42;130667;1304;22641;-87
2023/12/06 02:22:44;;;;;;;135.90;60.90;;;;;;;-5.39;95.50;99892.71;130479;1298;22674;-86
2023/12/06 02:25:44;;;;;;;139.10;61.60;;;;;;;-5.35;95.62;99897.71;130482;1306;22704;-88
2023/12/06 02:28:45;;;;;;;127.30;61.50;;;;;;;-5.31;95.63;99901.81;131019;1300;24240;-89
2023/12/06 02:31:46;;;;;;;134.40;63.60;;;;;;;-5.29;95.48;99903.27;131133;1301;22711;-88
2023/12/06 02:34:49;;;;;;;133.50;61.00;;;;;;;-5.26;95.41;99904.85;130945;1299;22619;-88
2023/12/06 02:37:54;;;;;;;135.40;61.70;;;;;;;-5.23;95.40;99906.45;131128;1294;22682;-89
2023/12/06 02:40:58;;;;;;;135.40;59.90;;;;;;;-5.19;95.32;99908.84;132755;1302;26916;-89
2023/12/06 02:43:58;;;;;;;130.20;60.30;;;;;;;-5.16;95.34;99910.95;130942;1305;22680;-89
2023/12/06 02:46:59;;;;;;;119.00;56.50;;;;;;;-5.14;95.30;99907.42;131154;1302;24268;-88
2023/12/06 02:50:00;;;;;;;124.80;59.00;;;;;;;-5.13;95.14;99904.77;131898;1308;22582;-89
2023/12/06 02:53:00;;;;;;;115.90;53.40;;;;;;;-5.11;95.32;99898.98;130873;1302;22569;-88
2023/12/06 02:56:01;;;;;;;129.20;59.40;;;;;;;-5.08;95.32;99898.35;130659;1297;22742;-88
2023/12/06 02:59:01;;;;;;;124.40;58.00;;;;;;;-5.06;95.41;99896.66;130881;1300;23649;-87
2023/12/06 03:02:02;;;;;;;125.50;59.60;;;;;;;-5.05;95.36;99897.46;132667;1304;22590;-88
2023/12/06 03:05:03;;;;;;;132.90;61.70;;;;;;;-5.06;95.35;99899.24;131137;1304;22577;-86
2023/12/06 03:08:03;;;;;;;134.90;62.00;;;;;;;-5.07;95.15;99893.09;132631;1306;22415;-86
2023/12/06 03:11:04;;;;;;;125.10;61.10;;;;;;;-5.08;95.15;99898.30;131333;1300;25391;-86
2023/12/06 03:14:05;;;;;;;130.20;60.90;;;;;;;-5.09;95.17;99891.48;130799;1293;22587;-86
2023/12/06 03:17:05;;;;;;;124.80;58.10;;;;;;;-5.12;95.10;99887.97;130705;1303;22575;-85
2023/12/06 03:20:07;;;;;;;132.70;62.20;;;;;;;-5.16;94.86;99885.08;132446;1303;22175;-86
2023/12/06 03:23:07;;;;;;;106.80;48.70;;;;;;;-5.20;94.83;99888.04;131362;1303;22588;-86
2023/12/06 03:26:08;;;;;;;126.70;55.80;;;;;;;-5.24;94.95;99890.61;130813;1303;23462;-86
2023/12/06 03:29:08;;;;;;;129.00;62.10;;;;;;;-5.27;94.83;99885.42;130805;1303;22676;-85
2023/12/06 03:32:09;;;;;;;133.70;62.90;;;;;;;-5.27;95.04;99885.92;130826;1308;24001;-85
2023/12/06 03:35:09;;;;;;;123.60;60.20;;;;;;;-5.28;95.05;99882.02;130665;1307;25905;-85
2023/12/06 03:38:10;;;;;;;128.70;61.90;;;;;;;-5.27;95.40;99881.44;133465;1303;22358;-86
2023/12/06 03:41:10;;;;;;;128.20;60.90;;;;;;;-5.24;95.49;99882.20;133627;1302;22411;-86
2023/12/06 03:44:11;;;;;;;131.30;59.00;;;;;;;-5.22;95.65;99882.25;133189;1303;22658;-86
2023/12/06 03:47:12;;;;;;;137.50;62.70;;;;;;;-5.20;95.64;99878.18;130886;1297;22601;-86
2023/12/06 03:50:12;;;;;;;133.30;59.30;;;;;;;-5.19;95.52;99880.39;130837;1294;22590;-86
2023/12/06 03:53:13;;;;;;;116.40;53.50;;;;;;;-5.19;95.34;99884.70;130783;1300;22565;-87
2023/12/06 03:56:13;;;;;;;133.90;62.50;;;;;;;-5.20;95.52;99888.70;131450;1302;23976;-86
2023/12/06 03:59:14;;;;;;;128.00;59.40;;;;;;;-5.20;95.59;99888.68;130782;1301;24071;-86
2023/12/06 04:02:15;;;;;;;126.00;54.30;;;;;;;-5.19;95.61;99887.61;130873;1303;22569;-89
2023/12/06 04:05:16;;;;;;;139.70;62.00;;;;;;;-5.20;95.56;99887.83;131799;1308;22577;-88
2023/12/06 04:08:16;;;;;;;128.70;53.90;;;;;;;-5.20;95.51;99886.32;130747;1306;25444;-88
2023/12/06 04:11:17;;;;;;;136.60;62.60;;;;;;;-5.20;95.64;99887.88;130577;1306;27477;-88
2023/12/06 04:14:17;;;;;;;122.10;56.20;;;;;;;-5.20;95.69;99885.95;133502;1303;22543;-88
2023/12/06 04:17:18;;;;;;;137.90;63.50;;;;;;;-5.19;96.01;99885.73;131424;1303;22602;-88
2023/12/06 04:20:18;;;;;;;130.60;60.90;;;;;;;-5.18;95.90;99889.65;131423;1307;23205;-88
2023/12/06 04:23:19;;;;;;;136.10;62.30;;;;;;;-5.18;95.97;99886.89;133488;1308;22583;-88
2023/12/06 04:26:20;;;;;;;139.70;61.90;;;;;;;-5.17;96.00;99889.63;131194;1308;22583;-88
2023/12/06 04:29:20;;;;;;;124.10;61.50;;;;;;;-5.15;95.94;99891.94;131541;1302;23070;-87
2023/12/06 04:32:21;;;;;;;132.90;62.80;;;;;;;-5.13;96.05;99894.58;131667;1300;25320;-88
2023/12/06 04:35:21;;;;;;;131.30;60.60;;;;;;;-5.10;96.20;99894.27;131622;1303;22595;-88
2023/12/06 04:38:22;;;;;;;132.00;63.10;;;;;;;-5.07;96.40;99900.35;131259;1306;22554;-87
2023/12/06 04:41:23;;;;;;;131.60;63.00;;;;;;;-5.04;96.34;99896.90;132287;1305;23465;-88
2023/12/06 04:44:23;;;;;;;143.20;64.20;;;;;;;-5.00;96.42;99898.98;131128;1303;22613;-88
2023/12/06 04:47:24;;;;;;;145.00;62.80;;;;;;;-4.99;96.40;99899.08;131158;1308;22709;-85
2023/12/06 04:50:25;;;;;;;134.50;58.70;;;;;;;-4.96;96.26;99903.45;130866;1294;22696;-86
2023/12/06 04:53:25;;;;;;;134.20;61.10;;;;;;;-4.94;96.39;99908.90;131283;1307;22692;-86
2023/12/06 04:56:26;;;;;;;137.00;63.10;;;;;;;-4.93;96.36;99909.35;131188;1300;22582;-86
2023/12/06 04:59:26;;;;;;;128.30;62.60;;;;;;;-4.92;96.36;99913.27;131059;1300;22570;-86
2023/12/06 05:02:27;;;;;;;126.10;59.60;;;;;;;-4.90;96.36;99916.44;130903;1303;24779;-86
2023/12/06 05:05:27;;;;;;;136.70;63.30;;;;;;;-4.89;96.41;99914.14;131071;1308;23462;-86
2023/12/06 05:08:28;;;;;;;132.80;61.80;;;;;;;-4.87;96.36;99913.02;130787;1303;22579;-86
2023/12/06 05:11:28;;;;;;;134.30;60.30;;;;;;;-4.84;96.55;99908.21;130650;1286;24374;-86
2023/12/06 05:14:29;;;;;;;120.40;58.50;;;;;;;-4.82;96.73;99901.21;130587;1300;22570;-86
2023/12/06 05:17:29;;;;;;;132.80;60.30;;;;;;;-4.80;96.76;99901.27;130924;1294;24751;-85
2023/12/06 05:20:30;;;;;;;127.10;60.70;;;;;;;-4.78;96.66;99900.51;131581;1302;22428;-86
2023/12/06 05:23:31;;;;;;;138.40;65.10;;;;;;;-4.75;96.75;99907.09;133587;1308;22428;-85
2023/12/06 05:26:31;;;;;;;128.10;61.80;;;;;;;-4.73;96.79;99908.70;131621;1300;23404;-84
2023/12/06 05:29:32;;;;;;;131.80;58.60;;;;;;;-4.69;96.72;99913.03;130946;1294;22585;-85
2023/12/06 05:32:32;;;;;;;129.30;61.50;;;;;;;-4.66;96.69;99916.98;130986;1303;25288;-85
2023/12/06 05:35:32;;;;;;;115.50;51.90;;;;;;;-4.63;96.71;99915.14;131023;1302;22609;-84
2023/12/06 05:38:33;;;;;;;132.00;65.30;;;;;;;-4.62;96.64;99922.48;131888;1301;22243;-84
2023/12/06 05:41:33;;;;;;;143.70;67.00;;;;;;;-4.60;96.62;99923.28;133562;1307;22524;-85
2023/12/06 05:44:34;;;;;;;135.70;61.20;;;;;;;-4.58;96.67;99927.12;131281;1306;22515;-84
2023/12/06 05:47:34;;;;;;;123.30;54.40;;;;;;;-4.57;96.60;99932.06;131294;1300;22613;-85
2023/12/06 05:50:35;;;;;;;131.30;60.60;;;;;;;-4.56;96.59;99929.10;131022;1305;22571;-85
2023/12/06 05:53:35;;;;;;;135.60;63.60;;;;;;;-4.57;96.48;99925.16;132184;1305;22503;-84
2023/12/06 05:56:36;;;;;;;133.20;63.40;;;;;;;-4.57;96.47;99928.09;133619;1302;23620;-84
2023/12/06 05:59:36;;;;;;;125.10;58.40;;;;;;;-4.56;96.33;99925.98;133622;1303;22071;-84
2023/12/06 06:02:37;;;;;;;129.30;62.00;;;;;;;-4.56;96.44;99926.00;133591;1305;23233;-84
2023/12/06 06:05:37;;;;;;;122.40;60.10;;;;;;;-4.55;96.34;99930.78;133074;1301;22413;-84
2023/12/06 06:08:38;;;;;;;121.40;60.30;;;;;;;-4.54;96.47;99935.88;133516;1303;22398;-84
2023/12/06 06:11:38;;;;;;;129.00;60.10;;;;;;;-4.54;96.34;99929.16;131872;1286;23267;-84
2023/12/06 06:14:39;;;;;;;135.30;60.40;;;;;;;-4.54;96.19;99927.25;130460;1299;25485;-84
2023/12/06 06:17:39;;;;;;;131.70;59.40;;;;;;;-4.55;96.09;99929.23;130717;1303;23559;-87
2023/12/06 06:20:40;;;;;;;119.10;59.70;;;;;;;-4.56;96.11;99936.02;131052;1297;22587;-86
2023/12/06 06:23:40;;;;;;;137.40;62.80;;;;;;;-4.58;96.11;99937.85;131215;1303;24398;-87
2023/12/06 06:26:41;;;;;;;127.30;62.80;;;;;;;-4.60;96.03;99938.63;130791;1298;24369;-87
2023/12/06 06:29:44;;;;;;;131.50;61.60;;;;;;;-4.63;95.89;99936.16;130567;1303;22584;-85
2023/12/06 06:32:44;;;;;;;124.80;58.40;;;;;;;-4.62;96.05;99933.72;130404;1301;22682;-88
2023/12/06 06:35:45;;;;;;;119.80;54.50;;;;;;;-4.64;95.97;99936.91;130476;1300;24421;-84
2023/12/06 06:38:46;;;;;;;120.00;58.50;;;;;;;-4.65;95.95;99936.45;130635;1305;23030;-83
2023/12/06 06:41:46;;;;;;;124.30;62.90;;;;;;;-4.66;96.12;99940.45;130700;1305;24343;-83
2023/12/06 06:44:51;;;;;;;118.40;56.70;;;;;;;-4.66;96.09;99937.02;130667;1306;22572;-83
2023/12/06 06:47:52;;;;;;;128.60;59.90;;;;;;;-4.66;95.97;99937.34;130576;1303;22592;-84
2023/12/06 06:50:52;;;;;;;123.90;60.70;;;;;;;-4.67;95.83;99941.20;130748;1301;24293;-83
2023/12/06 06:53:53;;;;;;;125.00;58.60;;;;;;;-4.68;95.98;99939.20;130735;1302;22758;-83
2023/12/06 06:56:54;;;;;;;126.60;61.40;;;;;;;-4.68;95.98;99945.39;130685;1295;25465;-83
2023/12/06 06:59:55;;;;;;;131.20;60.20;;;;;;;-4.67;95.92;99941.40;132926;1303;22576;-84
2023/12/06 07:02:55;;;;;;;127.10;62.70;;;;;;;-4.66;95.98;99944.95;133420;1301;23242;-84
2023/12/06 07:05:55;;;;;;;127.00;59.00;;;;;;;-4.63;96.02;99942.59;133168;1303;22776;-84
2023/12/06 07:08:56;;;;;;;124.70;58.80;;;;;;;-4.61;96.18;99941.96;133458;1303;22238;-83
2023/12/06 07:11:56;;;;;;;127.40;61.10;;;;;;;-4.58;96.02;99944.39;133564;1303;22532;-84
2023/12/06 07:14:58;;;;;;;134.30;64.00;;;;;;;-4.54;96.10;99944.19;133433;1309;22453;-84
2023/12/06 07:17:59;;;;;;;126.10;59.30;;;;;;;-4.47;96.17;99951.12;132556;1303;22564;-83
2023/12/06 07:21:00;;;;;;;126.00;61.20;;;;;;;-4.41;96.07;99954.27;130630;1302;23413;-87
2023/12/06 07:24:00;;;;;;;139.70;64.10;;;;;;;-4.34;96.00;99957.73;130678;1302;22586;-87
2023/12/06 07:27:03;;;;;;;133.20;61.40;;;;;;;-4.26;96.23;99956.64;131033;1300;23947;-87
2023/12/06 07:30:04;;;;;;;128.10;62.80;;;;;;;-4.20;96.17;99960.50;130685;1303;22631;-87
2023/12/06 07:33:05;;;;;;;137.70;64.70;;;;;;;-4.18;95.93;99958.69;130760;1304;22743;-88
2023/12/06 07:36:07;;;;;;;134.00;64.20;;;;;;;-4.20;95.75;99962.54;130627;1293;22831;-88
2023/12/06 07:39:08;;;;;;;139.00;65.40;;;;;;;-4.18;95.83;99964.70;131161;1303;24233;-86
2023/12/06 07:42:09;;;;;;;141.70;66.10;;;;;;;-4.13;96.01;99967.55;130583;1303;23417;-85
2023/12/06 07:45:11;;;;;;;136.70;63.90;;;;;;;-4.08;95.89;99962.95;132345;1295;22349;-86
2023/12/06 07:48:12;;;;;;;136.10;64.10;;;;;;;-4.03;95.81;99971.03;133594;1302;22488;-86
2023/12/06 07:51:13;;;;;;;130.50;64.90;;;;;;;-3.98;95.78;99971.66;133625;1300;22489;-86
2023/12/06 07:54:15;;;;;;;123.90;57.60;;;;;;;-3.94;95.92;99970.92;133559;1302;22367;-86
2023/12/06 07:57:15;;;;;;;129.80;64.70;;;;;;;-3.88;96.00;99973.55;133026;1302;24241;-85
2023/12/06 08:00:18;;;;;;;125.30;61.10;;;;;;;-3.82;95.79;99976.69;132036;1300;22273;-85
2023/12/06 08:03:21;;;;;;;132.70;63.00;;;;;;;-3.75;95.99;99973.08;133587;1301;22430;-85
2023/12/06 08:06:21;;;;;;;120.90;61.20;;;;;;;-3.67;95.99;99979.73;133532;1300;23254;-86
2023/12/06 08:09:23;;;;;;;126.50;61.40;;;;;;;-3.63;95.84;99980.72;130651;1303;22598;-85
2023/12/06 08:12:23;;;;;;;119.60;56.50;;;;;;;-3.62;95.67;99977.20;130696;1301;24295;-86
2023/12/06 08:15:24;;;;;;;126.00;60.80;;;;;;;-3.59;95.61;99975.70;130523;1293;24256;-85
2023/12/06 08:18:24;;;;;;;;;;;;;;;-3.55;95.61;99974.43;130613;1304;22565;-85
2023/12/06 08:21:25;;;;;;;126.20;60.80;;;;;;;-3.53;95.69;99968.96;130708;1303;25324;-86
2023/12/06 08:24:25;;;;;;;124.60;59.40;;;;;;;-3.46;95.84;99968.79;130389;1307;24257;-86
2023/12/06 08:27:29;;;;;;;122.00;59.60;;;;;;;-3.41;95.71;99973.14;130490;1300;25311;-86
2023/12/06 08:30:30;;;;;;;127.40;59.90;;;;;;;-3.35;95.69;99973.17;130538;1302;25255;-85
2023/12/06 08:33:30;;;;;;;132.30;63.50;;;;;;;-3.29;95.81;99976.87;130555;1300;24301;-85
2023/12/06 08:36:31;;;;;;;130.80;64.60;;;;;;;-3.23;95.75;99976.51;130611;1300;23139;-86
2023/12/06 08:39:34;;;;;;;129.10;61.90;;;;;;;-3.16;95.68;99977.02;130660;1302;22835;-85
2023/12/06 08:42:35;;;;;;;131.70;65.30;;;;;;;-3.15;95.42;99971.26;130814;1292;22645;-86
2023/12/06 08:45:36;;;;;;;131.80;66.10;;;;;;;-3.09;95.67;99971.10;130798;1301;22758;-86
2023/12/06 08:48:36;;;;;;;133.50;64.20;;;;;;;-3.04;95.67;99970.33;130863;1300;25380;-83
2023/12/06 08:51:37;;;;;;;130.30;65.70;;;;;;;-2.98;95.74;99967.20;130884;1290;24747;-83
2023/12/06 08:54:38;;;;;;;137.80;66.70;;;;;;;-2.89;95.76;99969.86;130840;1302;22617;-83
2023/12/06 08:57:39;;;;;;;132.10;65.20;;;;;;;-2.85;95.55;99966.50;130783;1294;24245;-83
2023/12/06 09:00:39;;;;;;;134.50;65.40;;;;;;;-2.80;95.55;99966.39;130610;1300;26428;-83
2023/12/06 09:03:40;;;;;;;133.00;66.50;;;;;;;-2.77;95.21;99966.90;130695;1300;22557;-83
2023/12/06 09:06:40;;;;;;;147.80;70.60;;;;;;;-2.73;95.19;99967.02;130638;1302;22576;-83
2023/12/06 09:09:45;;;;;;;129.50;60.70;;;;;;;-2.68;95.06;99968.52;130679;1300;22683;-83
2023/12/06 09:12:46;;;;;;;140.90;69.90;;;;;;;-2.67;95.17;99964.64;130818;1300;22641;-83
2023/12/06 09:15:46;;;;;;;115.60;52.60;;;;;;;-2.62;95.28;99968.67;130805;1303;22500;-83
2023/12/06 09:18:47;;;;;;;159.30;74.30;;;;;;;-2.57;94.83;99966.11;130740;1302;23523;-83
2023/12/06 09:21:47;;;;;;;150.50;71.50;;;;;;;-2.52;95.01;99968.61;132826;1300;22405;-83
2023/12/06 09:24:48;;;;;;;162.40;78.10;;;;;;;-2.49;94.98;99965.33;133419;1302;24546;-83
2023/12/06 09:27:50;;;;;;;162.60;77.60;;;;;;;-2.43;95.05;99963.46;133533;1300;22417;-83
2023/12/06 09:30:50;;;;;;;160.90;77.80;;;;;;;-2.36;94.98;99966.48;133609;1300;22311;-84
2023/12/06 09:33:52;;;;;;;158.60;74.60;;;;;;;-2.33;94.64;99968.05;130460;1300;22593;-83
2023/12/06 09:36:53;;;;;;;152.50;72.70;;;;;;;-2.31;94.73;99965.67;130987;1305;25262;-83
2023/12/06 09:39:53;;;;;;;153.10;72.60;;;;;;;-2.31;94.20;99973.66;130385;1294;22612;-83
2023/12/06 09:43:02;;;;;;;148.40;71.40;;;;;;;-2.30;94.46;99970.48;130688;1303;22637;-82
2023/12/06 09:46:03;;;;;;;156.60;76.20;;;;;;;-2.28;94.44;99968.11;130328;1293;23236;-85
2023/12/06 09:49:04;;;;;;;151.80;69.80;;;;;;;-2.27;94.26;99963.91;130445;1302;22584;-85
2023/12/06 09:52:17;;;;;;;148.80;71.30;;;;;;;-2.24;94.30;99966.14;130500;1294;22556;-85
2023/12/06 09:55:23;;;;;;;143.70;72.10;;;;;;;-2.21;94.57;99959.90;130370;1302;22616;-85
2023/12/06 09:58:23;;;;;;;155.20;71.50;;;;;;;-2.16;94.74;99959.44;130780;1301;23294;-85
2023/12/06 10:01:23;;;;;;;147.70;72.40;;;;;;;-2.09;94.55;99961.66;130791;1301;22557;-85
2023/12/06 10:04:24;;;;;;;141.50;68.00;;;;;;;-2.05;94.31;99956.88;130729;1302;23504;-85
2023/12/06 10:07:31;;;;;;;;;;;;;;;-1.99;94.26;99957.25;130670;1301;22569;-85
2023/12/06 10:10:32;;;;;;;124.70;58.80;;;;;;;-1.95;94.21;99959.27;130735;1303;22570;-85
2023/12/06 10:13:34;;;;;;;141.80;66.40;;;;;;;-1.94;93.95;99952.23;130595;1296;25538;-85
2023/12/06 10:16:35;;;;;;;132.80;63.40;;;;;;;-1.90;94.06;99947.17;130844;1293;22583;-85
2023/12/06 10:19:37;;;;;;;;;;;;;;;-1.88;94.11;99945.11;130756;1305;22576;-85
2023/12/06 10:22:37;;;;;;;124.70;63.30;;;;;;;-1.84;94.05;99934.86;130774;1301;25582;-85
2023/12/06 10:25:39;;;;;;;121.30;59.40;;;;;;;-1.78;94.01;99932.25;130672;1300;22695;-85
2023/12/06 10:28:39;;;;;;;128.90;63.30;;;;;;;-1.74;94.20;99930.27;131273;1303;22607;-84
2023/12/06 10:31:42;;;;;;;120.00;59.60;;;;;;;-1.68;94.12;99928.88;131347;1289;23315;-84
2023/12/06 10:34:43;;;;;;;128.10;59.80;;;;;;;-1.63;94.09;99930.27;130691;1301;22840;-85
2023/12/06 10:37:45;;;;;;;;;;;;;;;-1.56;94.09;99929.66;130761;1297;22564;-85
2023/12/06 10:40:45;;;;;;;114.10;56.90;;;;;;;-1.53;93.70;99926.20;130834;1308;22678;-85
2023/12/06 10:43:47;;;;;;;118.10;61.80;;;;;;;-1.50;93.98;99923.91;130792;1302;25372;-85
2023/12/06 10:46:48;;;;;;;120.10;56.30;;;;;;;-1.42;93.97;99927.77;130738;1303;22630;-82
2023/12/06 10:49:50;;;;;;;118.50;58.40;;;;;;;-1.36;93.83;99926.48;130616;1301;22612;-82
2023/12/06 10:52:52;;;;;;;118.10;59.20;;;;;;;-1.28;93.65;99929.71;130690;1294;22622;-82
2023/12/06 10:55:53;;;;;;;120.70;60.60;;;;;;;-1.26;93.85;99926.60;130667;1301;24601;-83
2023/12/06 10:58:57;;;;;;;;;;;;;;;-1.18;93.87;99917.59;130757;1301;24392;-85
2023/12/06 11:02:01;;;;;;;120.40;60.00;;;;;;;-1.12;93.72;99920.17;130634;1293;22584;-85
2023/12/06 11:05:05;;;;;;;115.00;57.80;;;;;;;-1.10;93.45;99917.46;130947;1304;22568;-85
2023/12/06 11:08:14;;;;;;;110.00;56.80;;;;;;;-1.07;93.33;99919.36;130672;1300;22657;-85
2023/12/06 11:11:33;;;;;;;89.60;43.00;;;;;;;-1.06;93.13;99920.64;130657;1301;23737;-84
2023/12/06 11:14:57;;;;;;;103.00;52.70;;;;;;;-1.00;93.43;99918.38;130744;1303;22617;-84
2023/12/06 11:18:14;;;;;;;109.30;55.10;;;;;;;-0.93;93.37;99919.12;130637;1303;22587;-85
2023/12/06 11:21:15;;;;;;;115.70;56.60;;;;;;;-0.88;92.93;99919.16;130597;1301;22585;-84
2023/12/06 11:24:16;;;;;;;108.70;56.40;;;;;;;-0.88;92.81;99915.00;130658;1303;22594;-84
2023/12/06 11:27:16;;;;;;;;;;;;;;;-0.87;92.89;99918.73;130515;1303;24241;-84
2023/12/06 11:30:17;;;;;;;110.60;58.50;;;;;;;-0.86;92.97;99918.02;130594;1301;22692;-85
2023/12/06 11:33:18;;;;;;;114.00;55.80;;;;;;;-0.84;92.93;99916.98;130441;1307;25293;-84
2023/12/06 11:36:18;;;;;;;;;;;;;;;-0.81;92.92;99918.02;131260;1303;22540;-84
2023/12/06 11:39:21;;;;;;;115.60;56.40;;;;;;;-0.78;93.12;99915.38;130516;1295;24420;-85
2023/12/06 11:42:22;;;;;;;111.60;54.50;;;;;;;-0.75;92.81;99914.86;130425;1300;22689;-85
2023/12/06 11:45:32;;;;;;;103.00;54.40;;;;;;;-0.75;92.55;99913.98;133112;1303;22618;-82
2023/12/06 11:48:35;;;;;;;111.60;56.70;;;;;;;-0.73;92.62;99915.95;130757;1300;22591;-82
2023/12/06 11:51:36;;;;;;;107.60;56.90;;;;;;;-0.73;92.50;99919.08;130560;1301;22796;-82
2023/12/06 11:54:44;;;;;;;113.90;56.30;;;;;;;-0.72;92.52;99915.66;130731;1303;22589;-82
2023/12/06 11:58:19;;;;;;;106.70;55.60;;;;;;;-0.69;92.39;99920.17;130471;1303;23078;-83
2023/12/06 12:01:20;;;;;;;105.60;54.80;;;;;;;-0.67;92.39;99924.91;130527;1301;23059;-83
2023/12/06 12:04:21;;;;;;;110.70;56.50;;;;;;;-0.61;92.68;99926.45;130751;1293;24523;-83
2023/12/06 12:07:22;;;;;;;111.40;59.90;;;;;;;-0.56;92.50;99925.44;130704;1302;22584;-82
2023/12/06 12:10:24;;;;;;;106.20;55.10;;;;;;;-0.51;92.66;99921.96;130853;1302;22588;-82
2023/12/06 12:13:26;;;;;;;108.80;55.40;;;;;;;-0.49;92.46;99928.21;130821;1300;22594;-85
2023/12/06 12:16:27;;;;;;;107.20;57.70;;;;;;;-0.43;92.28;99927.02;130790;1300;22588;-84
2023/12/06 12:19:27;;;;;;;115.00;57.50;;;;;;;-0.39;92.21;99921.01;130619;1308;22644;-84
2023/12/06 12:22:28;;;;;;;119.50;59.00;;;;;;;-0.41;92.18;99919.40;130839;1303;22612;-84
2023/12/06 12:25:29;;;;;;;111.30;58.00;;;;;;;-0.39;92.33;99918.39;130841;1302;24185;-85
2023/12/06 12:28:29;;;;;;;113.90;56.70;;;;;;;-0.37;92.15;99913.92;130438;1303;22656;-85
2023/12/06 12:31:31;;;;;;;116.10;59.00;;;;;;;-0.38;91.93;99916.09;130597;1297;22625;-85
2023/12/06 12:34:32;;;;;;;114.10;57.30;;;;;;;-0.38;92.00;99914.19;130568;1285;22748;-85
2023/12/06 12:37:34;;;;;;;112.60;56.80;;;;;;;-0.35;92.20;99920.08;130781;1303;22644;-85
2023/12/06 12:40:34;;;;;;;109.60;57.60;;;;;;;-0.29;92.23;99920.70;130754;1299;22561;-85
2023/12/06 12:43:35;;;;;;;109.70;57.90;;;;;;;-0.22;92.29;99920.94;130954;1303;24264;-84
2023/12/06 12:46:36;;;;;;;;;;;;;;;-0.18;92.09;99921.68;130571;1304;22569;-84
2023/12/06 12:49:37;;;;;;;118.10;59.50;;;;;;;-0.21;92.05;99920.88;130598;1293;23196;-84
2023/12/06 12:52:38;;;;;;;107.50;54.80;;;;;;;-0.21;91.93;99921.23;130607;1297;22578;-84
2023/12/06 12:55:41;;;;;;;115.20;60.10;;;;;;;-0.22;91.62;99920.60;130761;1296;22570;-83
2023/12/06 12:58:46;;;;;;;118.30;60.90;;;;;;;-0.24;92.01;99920.16;130726;1302;23293;-84
2023/12/06 13:01:47;;;;;;;110.70;55.30;;;;;;;-0.25;91.73;99920.07;130753;1304;23041;-83
2023/12/06 13:04:48;;;;;;;116.70;60.50;;;;;;;-0.27;91.56;99922.92;130962;1301;22571;-85
2023/12/06 13:07:51;;;;;;;121.80;61.90;;;;;;;-0.27;91.81;99921.95;130632;1303;23063;-86
2023/12/06 13:10:52;;;;;;;120.20;61.00;;;;;;;-0.27;91.76;99924.52;130764;1302;23272;-85
2023/12/06 13:13:53;;;;;;;125.50;64.50;;;;;;;-0.25;91.97;99931.19;130615;1303;22673;-84
2023/12/06 13:16:56;;;;;;;127.80;62.20;;;;;;;-0.23;91.91;99930.52;130453;1300;22701;-84
2023/12/06 13:19:57;;;;;;;115.90;61.30;;;;;;;-0.25;91.73;99934.48;130419;1303;22597;-84
2023/12/06 13:22:58;;;;;;;121.50;60.00;;;;;;;-0.27;91.57;99937.24;131027;1302;24292;-84
2023/12/06 13:25:58;;;;;;;115.80;57.70;;;;;;;-0.31;91.84;99935.38;130479;1297;24233;-84
2023/12/06 13:28:58;;;;;;;117.90;59.80;;;;;;;-0.33;91.61;99941.08;130959;1291;23214;-84
2023/12/06 13:31:59;;;;;;;116.60;62.00;;;;;;;-0.36;91.75;99942.34;133449;1303;22317;-85
2023/12/06 13:34:59;;;;;;;108.50;56.60;;;;;;;-0.37;91.98;99948.15;133382;1303;22206;-85
2023/12/06 13:38:02;;;;;;;119.00;60.30;;;;;;;-0.38;91.86;99944.38;132601;1301;22621;-84